Time;durP1;ratioP1;P1;durP2;ratioP2;P2;SDS_P1;SDS_P2;PMS_P1;PMS_P2;Temp;Humidity;BMP_temperature;BMP_pressure;BME280_temperature;BME280_humidity;BME280_pressure;Samples;Min_cycle;Max_cycle;Signal;HPM_P1;HPM_P2
2022/05/12 00:00:28;;;;;;;7.28;5.15;;;16.70;99.90;;;;;;5021865;28;20524;-75
2022/05/12 00:02:54;;;;;;;6.38;5.40;;;16.60;99.90;;;;;;5020662;28;20564;-74
2022/05/12 00:05:21;;;;;;;6.38;5.80;;;16.50;99.90;;;;;;5034290;28;20259;-74
2022/05/12 00:07:47;;;;;;;5.55;5.05;;;16.50;99.90;;;;;;5034306;28;20260;-74
2022/05/12 00:10:17;;;;;;;5.90;5.40;;;16.40;99.90;;;;;;5048837;28;20176;-74
2022/05/12 00:12:43;;;;;;;5.95;5.45;;;16.40;99.90;;;;;;5019723;28;20181;-74
2022/05/12 00:15:21;;;;;;;5.43;5.03;;;16.30;99.90;;;;;;5014099;28;20224;-74
2022/05/12 00:17:47;;;;;;;6.97;5.72;;;16.20;99.90;;;;;;5014455;28;20224;-76
2022/05/12 00:20:16;;;;;;;5.43;4.97;;;16.20;99.90;;;;;;5014305;28;20213;-74
2022/05/12 00:22:43;;;;;;;7.25;5.60;;;16.20;99.90;;;;;;5015439;28;20181;-75
2022/05/12 00:25:16;;;;;;;6.50;5.35;;;16.10;99.90;;;;;;5014373;28;20189;-74
2022/05/12 00:27:41;;;;;;;5.57;5.07;;;16.10;99.90;;;;;;5013898;28;20872;-73
2022/05/12 00:30:09;;;;;;;9.05;5.20;;;16.10;99.90;;;;;;5013998;28;20288;-74
2022/05/12 00:32:46;;;;;;;5.50;5.10;;;16.10;99.90;;;;;;5015073;28;20177;-73
2022/05/12 00:35:13;;;;;;;7.20;4.97;;;16.10;99.90;;;;;;5014137;28;20177;-76
2022/05/12 00:37:39;;;;;;;5.85;5.25;;;16.10;99.90;;;;;;5013756;28;20782;-75
2022/05/12 00:40:06;;;;;;;4.85;4.45;;;16.10;99.90;;;;;;5022956;28;20260;-76
2022/05/12 00:42:31;;;;;;;5.82;4.82;;;16.00;99.90;;;;;;5022040;28;20546;-75
2022/05/12 00:44:57;;;;;;;5.57;5.05;;;16.00;99.90;;;;;;5013914;28;20208;-75
2022/05/12 00:47:22;;;;;;;4.88;4.40;;;16.00;99.90;;;;;;5013864;28;20200;-76
2022/05/12 00:49:51;;;;;;;4.82;4.50;;;16.00;99.90;;;;;;5027590;28;20216;-74
2022/05/12 00:52:22;;;;;;;4.97;4.57;;;16.00;99.90;;;;;;5032465;28;20179;-75
2022/05/12 00:55:02;;;;;;;5.55;5.05;;;15.90;99.90;;;;;;5033711;28;20176;-75
2022/05/12 00:57:34;;;;;;;5.25;4.85;;;15.90;99.90;;;;;;5031798;28;20192;-74
2022/05/12 01:00:01;;;;;;;5.07;4.68;;;15.90;99.90;;;;;;5016253;28;20172;-75
2022/05/12 01:02:28;;;;;;;4.78;4.38;;;15.80;99.90;;;;;;5031174;28;20230;-75
2022/05/12 01:04:57;;;;;;;5.68;5.15;;;15.80;99.90;;;;;;5033188;28;20209;-74
2022/05/12 01:07:24;;;;;;;6.13;5.53;;;15.80;99.90;;;;;;5021314;28;20225;-76
2022/05/12 01:09:50;;;;;;;6.45;5.85;;;15.90;99.90;;;;;;5027078;28;20177;-75
2022/05/12 01:12:15;;;;;;;5.65;5.15;;;15.90;99.90;;;;;;5032054;28;20783;-76
2022/05/12 01:14:41;;;;;;;6.10;5.32;;;15.90;99.90;;;;;;5031991;28;20192;-75
2022/05/12 01:17:07;;;;;;;5.80;5.05;;;15.90;99.90;;;;;;5033206;28;20189;-75
2022/05/12 01:19:36;;;;;;;5.68;5.28;;;16.00;99.90;;;;;;5032940;28;20200;-76
2022/05/12 01:22:05;;;;;;;6.03;5.43;;;15.90;99.90;;;;;;5030962;28;20188;-77
2022/05/12 01:24:34;;;;;;;7.10;5.05;;;15.90;99.90;;;;;;5013012;28;20669;-75
2022/05/12 01:27:22;;;;;;;4.93;4.57;;;15.90;99.90;;;;;;5013245;28;20712;-76
2022/05/12 01:29:52;;;;;;;6.57;5.47;;;15.90;99.90;;;;;;5013005;28;20231;-76
2022/05/12 01:32:19;;;;;;;8.48;5.40;;;15.90;99.90;;;;;;5018427;28;20181;-74
2022/05/12 01:34:46;;;;;;;6.20;5.70;;;15.90;99.90;;;;;;5013184;28;20557;-74
2022/05/12 01:37:11;;;;;;;6.75;5.70;;;15.90;99.90;;;;;;5013281;28;20196;-77
2022/05/12 01:39:37;;;;;;;7.30;5.70;;;15.90;99.90;;;;;;5031220;28;20181;-74
2022/05/12 01:42:05;;;;;;;7.25;5.43;;;16.00;99.90;;;;;;5031069;28;20231;-75
2022/05/12 01:44:30;;;;;;;5.88;5.38;;;16.00;99.90;;;;;;5032457;28;20574;-76
2022/05/12 01:46:57;;;;;;;6.07;5.53;;;16.00;99.90;;;;;;5047985;28;20192;-76
2022/05/12 01:49:23;;;;;;;6.82;6.15;;;16.00;99.90;;;;;;5031923;28;20169;-76
2022/05/12 01:51:55;;;;;;;7.80;6.10;;;15.90;99.90;;;;;;5031271;28;20188;-76
2022/05/12 01:54:22;;;;;;;6.95;5.35;;;15.90;99.90;;;;;;5030877;28;20588;-76
2022/05/12 01:56:47;;;;;;;6.07;5.68;;;16.00;99.90;;;;;;5032376;28;20671;-75
2022/05/12 01:59:14;;;;;;;5.80;5.40;;;15.90;99.90;;;;;;5029507;28;20204;-76
2022/05/12 02:01:39;;;;;;;8.15;5.65;;;15.90;99.90;;;;;;5012423;28;20644;-75
2022/05/12 02:04:05;;;;;;;6.00;5.50;;;15.80;99.90;;;;;;5012316;28;20227;-76
2022/05/12 02:06:33;;;;;;;13.70;5.80;;;15.80;99.90;;;;;;5012636;28;20173;-76
2022/05/12 02:08:59;;;;;;;6.43;5.45;;;15.80;99.90;;;;;;5013815;28;20260;-75
2022/05/12 02:11:25;;;;;;;6.03;5.53;;;15.70;99.90;;;;;;5032366;28;20196;-75
2022/05/12 02:13:50;;;;;;;7.60;5.53;;;15.60;99.90;;;;;;5020604;28;20188;-74
2022/05/12 02:16:16;;;;;;;7.78;5.95;;;15.60;99.90;;;;;;5032036;28;20185;-74
2022/05/12 02:18:43;;;;;;;9.88;6.00;;;15.60;99.90;;;;;;5032199;28;20275;-74
2022/05/12 02:21:09;;;;;;;6.72;5.30;;;15.50;99.90;;;;;;5016680;28;20193;-75
2022/05/12 02:23:35;;;;;;;6.85;6.15;;;15.50;99.90;;;;;;5021255;28;20331;-80
2022/05/12 02:26:00;;;;;;;6.05;5.55;;;15.50;99.90;;;;;;5012537;28;20267;-74
2022/05/12 02:28:26;;;;;;;7.88;6.35;;;15.40;99.90;;;;;;5012459;28;20193;-78
2022/05/12 02:30:52;;;;;;;6.95;6.10;;;15.40;99.90;;;;;;5025515;28;20682;-75
2022/05/12 02:33:18;;;;;;;5.93;5.43;;;15.50;99.90;;;;;;5035444;28;20184;-75
2022/05/12 02:35:44;;;;;;;8.43;6.07;;;15.50;99.90;;;;;;5036270;28;20264;-76
2022/05/12 02:38:11;;;;;;;6.20;5.68;;;15.50;99.90;;;;;;5034977;28;20207;-75
2022/05/12 02:40:37;;;;;;;6.15;5.40;;;15.50;99.90;;;;;;5023992;28;20259;-75
2022/05/12 02:43:22;;;;;;;6.40;5.63;;;15.50;99.90;;;;;;5030031;28;20300;-75
2022/05/12 02:46:05;;;;;;;6.28;5.68;;;15.50;99.90;;;;;;5023124;28;20583;-74
2022/05/12 02:48:34;;;;;;;6.50;5.75;;;15.50;99.90;;;;;;5028221;28;20196;-74
2022/05/12 02:51:00;;;;;;;6.47;5.80;;;15.40;99.90;;;;;;5027049;28;20177;-74
2022/05/12 02:53:27;;;;;;;6.50;5.90;;;15.40;99.90;;;;;;5026033;28;20247;-75
2022/05/12 02:55:53;;;;;;;5.93;5.43;;;15.40;99.90;;;;;;5024534;28;20227;-73
2022/05/12 02:58:20;;;;;;;6.03;5.53;;;15.40;99.90;;;;;;5028173;28;20201;-74
2022/05/12 03:00:46;;;;;;;6.57;5.90;;;15.30;99.90;;;;;;5026424;28;20201;-73
2022/05/12 03:03:13;;;;;;;5.90;5.40;;;15.30;99.90;;;;;;5023964;28;20231;-73
2022/05/12 03:05:39;;;;;;;8.05;5.82;;;15.30;99.90;;;;;;5022331;28;20177;-75
2022/05/12 03:08:06;;;;;;;6.70;5.78;;;15.20;99.90;;;;;;5027590;28;20215;-74
2022/05/12 03:10:33;;;;;;;5.75;5.25;;;15.20;99.90;;;;;;5027537;28;20173;-73
2022/05/12 03:12:59;;;;;;;6.38;5.88;;;15.20;99.90;;;;;;5026574;28;20581;-74
2022/05/12 03:15:24;;;;;;;6.72;6.13;;;15.30;99.90;;;;;;5029397;28;20188;-74
2022/05/12 03:17:50;;;;;;;7.57;5.57;;;15.20;99.90;;;;;;5028870;28;20259;-73
2022/05/12 03:20:19;;;;;;;5.80;5.35;;;15.20;99.90;;;;;;5030218;28;20181;-73
2022/05/12 03:22:45;;;;;;;6.80;5.53;;;15.20;99.90;;;;;;5028448;28;20181;-74
2022/05/12 03:25:12;;;;;;;5.80;5.30;;;15.20;99.90;;;;;;5025902;28;20260;-74
2022/05/12 03:27:38;;;;;;;6.03;5.57;;;15.20;99.90;;;;;;5030930;28;20738;-74
2022/05/12 03:30:07;;;;;;;5.70;5.30;;;15.10;99.90;;;;;;5028459;28;20192;-74
2022/05/12 03:32:33;;;;;;;6.55;5.90;;;15.00;99.90;;;;;;5028392;28;20168;-73
2022/05/12 03:34:59;;;;;;;5.95;5.40;;;15.00;99.90;;;;;;5027601;28;20303;-74
2022/05/12 03:37:25;;;;;;;7.78;5.90;;;15.00;99.90;;;;;;5023985;28;20297;-75
2022/05/12 03:39:51;;;;;;;5.88;5.47;;;15.00;99.90;;;;;;5028007;28;20207;-75
2022/05/12 03:42:18;;;;;;;5.70;5.25;;;15.00;99.90;;;;;;5034772;28;20219;-74
2022/05/12 03:44:49;;;;;;;6.80;5.85;;;15.00;99.90;;;;;;5033744;28;20237;-74
2022/05/12 03:47:19;;;;;;;6.10;5.60;;;15.10;99.90;;;;;;5035073;28;20185;-74
2022/05/12 03:49:50;;;;;;;8.85;5.88;;;15.20;99.90;;;;;;5032760;28;20547;-74
2022/05/12 03:52:17;;;;;;;5.55;5.07;;;15.10;99.90;;;;;;5034452;28;20172;-74
2022/05/12 03:54:43;;;;;;;5.90;5.43;;;15.20;99.90;;;;;;5035329;28;20651;-74
2022/05/12 03:57:10;;;;;;;5.50;5.10;;;15.30;99.90;;;;;;5033493;28;20691;-75
2022/05/12 03:59:39;;;;;;;6.30;5.63;;;15.40;99.90;;;;;;5034767;28;20177;-76
2022/05/12 04:02:07;;;;;;;6.25;5.63;;;15.50;99.90;;;;;;5033950;28;20185;-78
2022/05/12 04:04:33;;;;;;;12.48;5.68;;;15.50;99.90;;;;;;5034812;28;20694;-74
2022/05/12 04:07:00;;;;;;;6.20;5.57;;;15.50;99.90;;;;;;5033508;28;20287;-74
2022/05/12 04:09:26;;;;;;;6.38;5.78;;;15.50;99.90;;;;;;5034566;28;20223;-74
2022/05/12 04:11:52;;;;;;;5.70;5.28;;;15.50;99.90;;;;;;5033289;28;20185;-74
2022/05/12 04:14:18;;;;;;;6.55;5.63;;;15.60;99.90;;;;;;5031726;28;20233;-74
2022/05/12 04:16:44;;;;;;;6.05;5.43;;;15.60;99.90;;;;;;5034284;28;20234;-74
2022/05/12 04:19:11;;;;;;;8.55;5.72;;;15.70;99.90;;;;;;5034214;28;20184;-74
2022/05/12 04:21:37;;;;;;;5.88;5.38;;;15.80;99.90;;;;;;5030945;28;20244;-74
2022/05/12 04:24:07;;;;;;;5.63;5.13;;;15.90;99.90;;;;;;5033954;28;20280;-75
2022/05/12 04:26:35;;;;;;;6.25;5.75;;;15.90;99.90;;;;;;5032687;28;20165;-76
2022/05/12 04:29:01;;;;;;;5.63;5.22;;;16.00;99.90;;;;;;5032752;28;20188;-85
2022/05/12 04:31:27;;;;;;;6.13;5.20;;;16.00;99.90;;;;;;5051809;28;20267;-81
2022/05/12 04:36:37;;;;;;;5.75;5.25;;;16.00;99.90;;;;;;5024742;28;20550;-86
2022/05/12 04:39:05;;;;;;;7.07;5.53;;;16.10;99.90;;;;;;5040936;28;20176;-84
2022/05/12 04:41:31;;;;;;;8.93;4.68;;;16.20;99.90;;;;;;5034860;28;20212;-81
2022/05/12 04:43:58;;;;;;;6.00;5.50;;;16.20;99.90;;;;;;5037972;28;20660;-81
2022/05/12 04:46:25;;;;;;;5.88;5.20;;;16.30;99.90;;;;;;5031393;28;20181;-76
2022/05/12 04:48:51;;;;;;;7.75;5.78;;;16.30;99.90;;;;;;5022546;28;20227;-74
2022/05/12 04:51:17;;;;;;;5.93;5.20;;;16.60;99.90;;;;;;5022208;28;20183;-74
2022/05/12 04:53:43;;;;;;;7.03;5.30;;;16.60;99.90;;;;;;5023948;28;20264;-76
2022/05/12 04:56:08;;;;;;;5.72;4.70;;;16.70;99.90;;;;;;5027668;28;20537;-76
2022/05/12 04:58:34;;;;;;;5.63;5.07;;;16.80;99.90;;;;;;5024649;28;20196;-75
2022/05/12 05:01:00;;;;;;;5.40;4.90;;;16.90;99.90;;;;;;5030206;28;20187;-77
2022/05/12 05:03:25;;;;;;;5.55;4.45;;;17.00;99.90;;;;;;5022761;28;20196;-75
2022/05/12 05:05:51;;;;;;;5.35;4.80;;;17.20;99.90;;;;;;5022789;28;20255;-75
2022/05/12 05:08:20;;;;;;;5.10;4.65;;;17.60;99.90;;;;;;5022988;28;20272;-75
2022/05/12 05:10:46;;;;;;;4.97;4.40;;;17.80;99.90;;;;;;5021517;28;20875;-75
2022/05/12 05:13:12;;;;;;;4.68;4.38;;;17.90;99.90;;;;;;5020301;28;20831;-75
2022/05/12 05:15:38;;;;;;;5.95;4.70;;;18.10;99.90;;;;;;5021193;28;20259;-75
2022/05/12 05:18:04;;;;;;;5.10;4.70;;;18.20;99.90;;;;;;5023624;28;20236;-75
2022/05/12 05:20:30;;;;;;;5.03;4.65;;;18.30;99.90;;;;;;5038688;28;20181;-75
2022/05/12 05:22:56;;;;;;;5.45;4.80;;;18.40;99.90;;;;;;5018785;28;20184;-75
2022/05/12 05:25:21;;;;;;;5.28;4.88;;;18.60;99.90;;;;;;5023028;28;20223;-74
2022/05/12 05:27:48;;;;;;;4.88;4.40;;;18.80;99.90;;;;;;5018585;28;20201;-75
2022/05/12 05:30:18;;;;;;;4.85;4.35;;;19.00;99.90;;;;;;5025099;28;20181;-76
2022/05/12 05:32:44;;;;;;;5.10;4.60;;;19.10;99.90;;;;;;5029702;28;20179;-72
2022/05/12 05:35:12;;;;;;;4.53;4.10;;;19.10;99.90;;;;;;5038452;28;20176;-74
2022/05/12 05:37:38;;;;;;;7.70;4.55;;;19.10;99.90;;;;;;5020881;28;20203;-77
2022/05/12 05:40:05;;;;;;;4.47;4.07;;;19.10;99.90;;;;;;5026986;28;20216;-76
2022/05/12 05:42:31;;;;;;;4.88;4.47;;;19.20;99.90;;;;;;5032168;28;20672;-79
2022/05/12 05:44:57;;;;;;;5.85;4.80;;;19.20;99.90;;;;;;5032261;28;20262;-77
2022/05/12 05:47:22;;;;;;;8.93;4.78;;;19.30;99.90;;;;;;5033019;28;20663;-77
2022/05/12 05:49:48;;;;;;;4.05;3.83;;;19.50;99.90;;;;;;5032452;28;20530;-78
2022/05/12 05:54:58;;;;;;;4.50;4.20;;;19.90;99.90;;;;;;5024075;28;20183;-80
2022/05/12 05:57:27;;;;;;;3.70;3.40;;;20.00;99.90;;;;;;5035531;28;20287;-79
2022/05/12 05:59:56;;;;;;;4.68;4.30;;;20.10;99.90;;;;;;5027704;28;20192;-76
2022/05/12 06:02:22;;;;;;;6.20;3.20;;;20.30;99.90;;;;;;5031137;28;20591;-75
2022/05/12 06:04:48;;;;;;;4.43;4.13;;;20.50;99.90;;;;;;5032207;28;20230;-74
2022/05/12 06:07:14;;;;;;;4.78;4.10;;;20.60;99.90;;;;;;5030235;28;20249;-76
2022/05/12 06:09:41;;;;;;;5.43;4.18;;;20.80;99.90;;;;;;5032539;28;20338;-75
2022/05/12 06:12:10;;;;;;;3.85;3.55;;;20.70;99.90;;;;;;5030722;28;20256;-76
2022/05/12 06:14:37;;;;;;;5.00;3.60;;;20.70;99.90;;;;;;5032230;28;20691;-75
2022/05/12 06:17:03;;;;;;;3.72;3.53;;;20.70;99.90;;;;;;5047301;28;20204;-76
2022/05/12 06:19:29;;;;;;;5.05;3.53;;;20.60;99.90;;;;;;5026475;28;20181;-75
2022/05/12 06:21:55;;;;;;;3.90;3.60;;;20.60;99.90;;;;;;5017684;28;20188;-72
2022/05/12 06:24:21;;;;;;;5.18;3.78;;;20.60;99.90;;;;;;5021474;28;20716;-73
2022/05/12 06:26:46;;;;;;;4.50;4.10;;;20.60;99.90;;;;;;5020537;28;20221;-73
2022/05/12 06:29:12;;;;;;;3.95;3.53;;;20.70;99.90;;;;;;5026151;28;20192;-74
2022/05/12 06:31:40;;;;;;;3.90;3.60;;;20.70;99.90;;;;;;5026757;28;20760;-73
2022/05/12 06:34:06;;;;;;;3.00;2.80;;;20.80;99.90;;;;;;5021623;28;20260;-75
2022/05/12 06:36:31;;;;;;;3.75;3.45;;;20.80;99.90;;;;;;5028585;28;20224;-77
2022/05/12 06:38:57;;;;;;;3.38;3.08;;;20.90;99.90;;;;;;5014209;28;20782;-76
2022/05/12 06:41:25;;;;;;;3.10;2.90;;;20.90;99.90;;;;;;5016680;28;20196;-73
2022/05/12 06:43:51;;;;;;;4.28;2.25;;;21.00;99.90;;;;;;5031410;28;20228;-72
2022/05/12 06:46:18;;;;;;;3.22;2.80;;;21.10;99.90;;;;;;5021835;28;20536;-75
2022/05/12 06:48:46;;;;;;;2.47;2.20;;;21.20;99.90;;;;;;5020666;28;20201;-72
2022/05/12 06:51:13;;;;;;;4.07;2.63;;;21.20;99.90;;;;;;5023342;28;20204;-73
2022/05/12 06:53:39;;;;;;;2.20;2.10;;;21.30;99.90;;;;;;5021853;28;20272;-72
2022/05/12 06:56:07;;;;;;;2.33;2.22;;;21.40;99.90;;;;;;5020266;28;20172;-73
2022/05/12 06:58:34;;;;;;;3.30;2.47;;;21.50;99.90;;;;;;5021408;28;20193;-74
2022/05/12 07:01:00;;;;;;;2.10;1.90;;;21.50;99.90;;;;;;5021181;28;20620;-74
2022/05/12 07:03:26;;;;;;;6.78;2.38;;;21.60;99.90;;;;;;5020365;28;20189;-72
2022/05/12 07:05:52;;;;;;;2.05;1.95;;;21.70;99.90;;;;;;5022359;28;20169;-72
2022/05/12 07:08:18;;;;;;;2.05;1.88;;;21.70;99.90;;;;;;5020826;28;20200;-73
2022/05/12 07:10:44;;;;;;;2.00;1.90;;;21.80;99.90;;;;;;5021821;28;20181;-73
2022/05/12 07:13:10;;;;;;;1.65;1.55;;;21.90;99.90;;;;;;5029989;28;20183;-74
2022/05/12 07:15:36;;;;;;;2.63;2.00;;;22.00;99.90;;;;;;5019037;28;20324;-73
2022/05/12 07:18:02;;;;;;;1.95;1.85;;;22.00;99.90;;;;;;5011738;28;20572;-73
2022/05/12 07:28:42;;;;;;;5.18;2.00;;;22.60;99.90;;;;;;5030656;28;20565;-73
2022/05/12 07:31:09;;;;;;;1.80;1.70;;;22.60;99.90;;;;;;5032208;28;20727;-75
2022/05/12 07:33:39;;;;;;;2.95;1.80;;;22.90;99.90;;;;;;5017684;28;20640;-73
2022/05/12 07:36:16;;;;;;;2.92;1.67;;;23.20;99.90;;;;;;5025423;28;20193;-75
2022/05/12 07:38:43;;;;;;;1.95;1.85;;;23.60;99.90;;;;;;5019326;28;20204;-74
2022/05/12 07:41:12;;;;;;;1.65;1.55;;;23.90;98.60;;;;;;5027181;28;20192;-73
2022/05/12 07:43:39;;;;;;;1.90;1.75;;;24.00;97.70;;;;;;5019261;28;20201;-76
2022/05/12 07:46:06;;;;;;;2.60;1.55;;;23.90;97.50;;;;;;5020539;28;20178;-76
2022/05/12 07:48:32;;;;;;;2.70;1.90;;;24.00;97.50;;;;;;5021574;28;20607;-79
2022/05/12 07:50:58;;;;;;;2.20;1.52;;;24.10;97.40;;;;;;5023723;28;20169;-78
2022/05/12 07:53:23;;;;;;;4.32;1.92;;;24.50;96.30;;;;;;5028340;28;20180;-78
2022/05/12 07:55:49;;;;;;;1.90;1.67;;;24.80;95.50;;;;;;5019633;28;20256;-81
2022/05/12 07:58:17;;;;;;;3.92;1.60;;;25.10;95.10;;;;;;5020144;28;20220;-78
2022/05/12 08:00:43;;;;;;;2.42;1.92;;;25.50;93.60;;;;;;5024767;28;20176;-74
2022/05/12 08:03:09;;;;;;;3.10;1.98;;;25.60;93.40;;;;;;5025769;28;20670;-74
2022/05/12 08:05:36;;;;;;;1.88;1.77;;;25.80;92.50;;;;;;5018684;28;20181;-74
2022/05/12 08:08:03;;;;;;;1.83;1.73;;;25.90;91.70;;;;;;5018310;28;20388;-73
2022/05/12 08:10:29;;;;;;;1.83;1.73;;;25.90;91.30;;;;;;5014001;28;20169;-72
2022/05/12 08:12:56;;;;;;;1.73;1.63;;;25.80;91.20;;;;;;5025526;28;20180;-72
2022/05/12 08:15:24;;;;;;;1.90;1.80;;;25.80;90.70;;;;;;5025492;28;20200;-73
2022/05/12 08:17:53;;;;;;;2.50;1.88;;;25.90;90.40;;;;;;5015980;28;20242;-73
2022/05/12 08:20:19;;;;;;;1.65;1.55;;;25.80;90.50;;;;;;5019832;28;20177;-74
2022/05/12 08:22:45;;;;;;;2.38;2.17;;;25.80;91.00;;;;;;5031528;28;20199;-75
2022/05/12 08:25:12;;;;;;;3.28;1.83;;;25.70;91.00;;;;;;5033085;28;20208;-73
2022/05/12 08:27:38;;;;;;;1.83;1.55;;;25.80;90.40;;;;;;5033220;28;20246;-73
2022/05/12 08:30:07;;;;;;;2.72;1.70;;;25.80;90.90;;;;;;5030905;28;20201;-73
2022/05/12 08:32:33;;;;;;;1.80;1.70;;;25.80;90.50;;;;;;5028581;28;20173;-72
2022/05/12 08:34:59;;;;;;;3.00;1.88;;;25.50;89.90;;;;;;5021092;28;20670;-75
2022/05/12 08:37:24;;;;;;;2.40;1.92;;;25.10;91.20;;;;;;5024098;28;20212;-74
2022/05/12 08:39:51;;;;;;;1.52;1.52;;;24.80;91.20;;;;;;5024793;28;20271;-76
2022/05/12 08:42:25;;;;;;;2.28;2.08;;;24.70;91.50;;;;;;5023503;28;20272;-79
2022/05/12 08:44:51;;;;;;;1.60;1.50;;;24.50;92.50;;;;;;5030581;28;20200;-78
2022/05/12 08:47:27;;;;;;;2.20;1.67;;;24.60;91.40;;;;;;5022112;28;20203;-82
2022/05/12 08:49:54;;;;;;;1.77;1.67;;;25.00;92.20;;;;;;5029897;28;20552;-74
2022/05/12 08:52:29;;;;;;;4.55;1.80;;;25.50;92.50;;;;;;5014100;28;20200;-76
2022/05/12 08:55:09;;;;;;;2.63;2.13;;;25.80;91.10;;;;;;5027060;28;20216;-75
2022/05/12 08:58:05;;;;;;;1.70;1.70;;;26.30;91.30;;;;;;5024277;28;20212;-76
2022/05/12 09:00:57;;;;;;;1.60;1.50;;;26.50;87.40;;;;;;5015275;28;20196;-74
2022/05/12 09:03:47;;;;;;;3.60;1.80;;;26.60;84.60;;;;;;5023812;28;20762;-75
2022/05/12 09:06:18;;;;;;;6.63;1.85;;;26.70;88.30;;;;;;5031529;28;20176;-75
2022/05/12 09:08:50;;;;;;;1.80;1.70;;;26.90;84.50;;;;;;5012997;28;20581;-75
2022/05/12 09:11:21;;;;;;;2.40;1.58;;;26.90;85.80;;;;;;5015624;28;20719;-75
2022/05/12 09:13:50;;;;;;;1.75;1.60;;;27.10;84.00;;;;;;5017915;28;20204;-74
2022/05/12 09:16:32;;;;;;;4.93;1.98;;;27.40;83.20;;;;;;5023308;28;20173;-74
2022/05/12 09:18:59;;;;;;;1.60;1.60;;;27.60;80.80;;;;;;5022124;28;20173;-75
2022/05/12 09:21:29;;;;;;;1.73;1.63;;;27.60;80.60;;;;;;5028556;28;20191;-76
2022/05/12 09:23:57;;;;;;;1.92;1.83;;;27.90;80.30;;;;;;5029241;28;20200;-76
2022/05/12 09:26:34;;;;;;;1.98;1.77;;;28.70;77.40;;;;;;5030604;28;20173;-74
2022/05/12 09:29:20;;;;;;;1.90;1.80;;;30.20;73.10;;;;;;5022070;28;20191;-74
2022/05/12 09:32:03;;;;;;;1.67;1.58;;;32.10;71.40;;;;;;5015902;28;20808;-74
2022/05/12 09:34:36;;;;;;;3.00;1.88;;;33.40;62.50;;;;;;5019649;28;20188;-72
2022/05/12 09:37:18;;;;;;;4.40;2.00;;;32.80;61.20;;;;;;5026703;28;20597;-71
2022/05/12 09:40:12;;;;;;;2.03;1.80;;;31.50;62.40;;;;;;5017716;28;20199;-71
2022/05/12 09:42:41;;;;;;;1.63;1.52;;;30.40;65.70;;;;;;5031332;28;20192;-71
2022/05/12 09:45:18;;;;;;;2.38;1.60;;;29.70;67.70;;;;;;5031761;28;20196;-72
2022/05/12 09:47:44;;;;;;;2.05;1.65;;;29.20;68.20;;;;;;5030410;28;20278;-72
2022/05/12 09:50:20;;;;;;;2.25;1.75;;;28.70;69.20;;;;;;5028785;28;20771;-74
2022/05/12 09:52:46;;;;;;;3.30;2.10;;;28.80;69.80;;;;;;5031718;28;20172;-73
2022/05/12 09:55:17;;;;;;;1.95;1.70;;;29.50;68.60;;;;;;5032388;28;20172;-74
2022/05/12 09:57:52;;;;;;;1.75;1.60;;;29.60;67.60;;;;;;5030803;28;20208;-73
2022/05/12 10:00:39;;;;;;;3.10;1.98;;;29.70;67.90;;;;;;5012079;28;20173;-73
2022/05/12 10:09:16;;;;;;;4.75;2.45;;;29.80;70.20;;;;;;5020648;28;20226;-74
2022/05/12 10:12:10;;;;;;;2.25;1.70;;;31.30;65.50;;;;;;5026611;28;20172;-75
2022/05/12 10:14:47;;;;;;;3.22;1.45;;;33.80;59.90;;;;;;5016269;28;21246;-78
2022/05/12 10:17:26;;;;;;;2.15;1.52;;;36.50;56.60;;;;;;5018672;28;20553;-71
2022/05/12 10:19:52;;;;;;;1.83;1.60;;;37.40;52.70;;;;;;5026196;28;20198;-72
2022/05/12 10:22:29;;;;;;;2.90;1.73;;;38.00;49.20;;;;;;5025144;28;20189;-71
2022/05/12 10:25:22;;;;;;;1.77;1.50;;;37.20;50.00;;;;;;5029708;28;20575;-73
2022/05/12 10:28:01;;;;;;;2.00;1.90;;;37.20;48.40;;;;;;5031198;28;20199;-72
2022/05/12 10:30:50;;;;;;;2.15;2.05;;;37.00;49.20;;;;;;5028404;28;20168;-72
2022/05/12 10:33:32;;;;;;;3.03;1.50;;;36.20;50.70;;;;;;5025701;28;20222;-72
2022/05/12 10:36:06;;;;;;;2.10;2.00;;;37.30;49.00;;;;;;5012324;28;20169;-73
2022/05/12 10:38:49;;;;;;;2.28;2.00;;;38.20;48.00;;;;;;5010700;28;20576;-70
2022/05/12 10:41:23;;;;;;;1.95;1.85;;;38.80;46.90;;;;;;5016217;28;20221;-70
2022/05/12 10:44:17;;;;;;;2.38;1.70;;;38.10;46.40;;;;;;5021252;28;20566;-71
2022/05/12 10:46:57;;;;;;;3.63;1.70;;;37.70;46.30;;;;;;5017351;28;20220;-70
2022/05/12 10:49:49;;;;;;;1.90;1.80;;;38.30;46.40;;;;;;5024148;28;20589;-75
2022/05/12 10:52:38;;;;;;;1.95;1.50;;;39.60;44.70;;;;;;5030986;28;20221;-72
2022/05/12 10:55:32;;;;;;;3.63;1.95;;;40.60;42.70;;;;;;5030584;28;20222;-75
2022/05/12 10:58:26;;;;;;;2.13;1.90;;;40.60;42.60;;;;;;5024819;28;20228;-74
2022/05/12 11:00:57;;;;;;;2.47;1.98;;;39.20;42.90;;;;;;5034373;28;20642;-73
2022/05/12 11:03:34;;;;;;;3.45;2.10;;;39.10;44.60;;;;;;5017044;28;20209;-70
2022/05/12 11:06:03;;;;;;;2.47;2.28;;;38.40;44.30;;;;;;5015162;28;20669;-70
2022/05/12 11:08:38;;;;;;;2.08;1.98;;;37.30;44.50;;;;;;5013926;28;20561;-71
2022/05/12 11:11:12;;;;;;;3.30;2.40;;;35.90;46.60;;;;;;5023660;28;20186;-72
2022/05/12 11:13:52;;;;;;;5.15;2.20;;;35.00;48.60;;;;;;5034541;28;20176;-71
2022/05/12 11:16:26;;;;;;;2.85;1.95;;;35.40;47.30;;;;;;5034828;28;20605;-72
2022/05/12 11:19:02;;;;;;;2.15;1.80;;;35.30;48.10;;;;;;5028354;28;20176;-73
2022/05/12 11:21:29;;;;;;;3.25;2.13;;;35.70;48.70;;;;;;5025817;28;20172;-73
2022/05/12 11:24:13;;;;;;;2.45;2.00;;;36.30;48.00;;;;;;5033566;28;20230;-71
2022/05/12 11:27:12;;;;;;;2.33;2.00;;;37.20;45.70;;;;;;5034408;28;20176;-71
2022/05/12 11:29:59;;;;;;;1.83;1.73;;;37.80;46.80;;;;;;5022532;28;20189;-71
2022/05/12 11:32:29;;;;;;;2.47;2.33;;;38.10;44.90;;;;;;5018880;28;20695;-70
2022/05/12 11:35:00;;;;;;;3.10;2.20;;;38.20;44.30;;;;;;5023272;28;20184;-70
2022/05/12 11:37:34;;;;;;;2.40;2.20;;;36.70;45.30;;;;;;5015170;28;20283;-70
2022/05/12 11:40:06;;;;;;;2.00;1.90;;;36.60;45.50;;;;;;5028717;28;20182;-71
2022/05/12 11:46:14;;;;;;;3.92;2.03;;;36.80;45.20;;;;;;5014514;28;20278;-70
2022/05/12 11:48:49;;;;;;;3.10;1.83;;;36.30;46.40;;;;;;5013815;28;20291;-73
2022/05/12 11:51:29;;;;;;;2.45;2.15;;;37.30;44.50;;;;;;5013173;28;20176;-74
2022/05/12 11:54:01;;;;;;;2.22;2.05;;;37.90;45.50;;;;;;5013996;28;20169;-73
2022/05/12 11:56:48;;;;;;;3.17;2.25;;;37.80;44.70;;;;;;5026064;28;20180;-73
2022/05/12 11:59:16;;;;;;;1.88;1.77;;;38.00;43.10;;;;;;5033983;28;20179;-72
2022/05/12 12:01:42;;;;;;;2.40;2.08;;;37.90;43.50;;;;;;5033680;28;20226;-72
2022/05/12 12:04:14;;;;;;;2.70;2.08;;;37.60;42.10;;;;;;5031778;28;20234;-72
2022/05/12 12:06:47;;;;;;;5.03;2.00;;;37.00;44.40;;;;;;5030888;28;20181;-73
2022/05/12 12:09:35;;;;;;;2.63;2.00;;;36.40;45.30;;;;;;5013930;28;20176;-73
2022/05/12 12:12:03;;;;;;;2.00;1.90;;;36.10;46.30;;;;;;5028555;28;20176;-72
2022/05/12 12:14:49;;;;;;;5.07;2.15;;;36.00;46.60;;;;;;5022154;28;20176;-71
2022/05/12 12:17:33;;;;;;;3.40;2.00;;;36.50;46.60;;;;;;5017168;28;20212;-73
2022/05/12 12:20:31;;;;;;;3.35;2.00;;;36.20;46.20;;;;;;5018979;28;20235;-70
2022/05/12 12:23:21;;;;;;;2.25;2.10;;;35.70;46.80;;;;;;5029670;28;20183;-70
2022/05/12 12:26:10;;;;;;;2.08;1.88;;;35.20;46.40;;;;;;5028724;28;20192;-71
2022/05/12 12:29:06;;;;;;;3.10;2.33;;;35.10;46.70;;;;;;5013821;28;20200;-70
2022/05/12 12:31:37;;;;;;;2.90;2.03;;;34.80;45.80;;;;;;5032943;28;20180;-72
2022/05/12 12:34:24;;;;;;;2.15;1.98;;;34.80;47.30;;;;;;5031759;28;20180;-71
2022/05/12 12:37:05;;;;;;;4.63;2.17;;;35.00;47.80;;;;;;5033174;28;20196;-71
